Time;durP1;ratioP1;P1;durP2;ratioP2;P2;SDS_P1;SDS_P2;PMS_P1;PMS_P2;Temp;Humidity;BMP_temperature;BMP_pressure;BME280_temperature;BME280_humidity;BME280_pressure;Samples;Min_cycle;Max_cycle;Signal;HPM_P1;HPM_P2
2023/09/21 00:00:45;;;;;;;4.50;2.90;;;20.80;99.90;;;;;;5085683;28;20766;-83
2023/09/21 00:03:12;;;;;;;4.40;3.20;;;20.70;99.90;;;;;;5085863;28;20195;-83
2023/09/21 00:05:37;;;;;;;5.17;3.17;;;20.70;99.90;;;;;;5088063;28;20464;-83
2023/09/21 00:08:05;;;;;;;4.20;3.77;;;20.60;99.90;;;;;;5088178;28;20465;-80
2023/09/21 00:10:32;;;;;;;6.37;3.63;;;20.60;99.90;;;;;;5089457;28;20399;-83
2023/09/21 00:13:01;;;;;;;6.10;3.13;;;20.50;99.90;;;;;;5089713;28;20399;-80
2023/09/21 00:15:29;;;;;;;2.70;2.50;;;20.40;99.90;;;;;;5088092;28;20441;-80
2023/09/21 00:17:56;;;;;;;2.93;2.73;;;20.40;99.90;;;;;;5089513;28;20437;-79
2023/09/21 00:20:41;;;;;;;4.67;2.77;;;20.40;99.90;;;;;;5089538;28;20730;-80
2023/09/21 00:23:08;;;;;;;4.50;3.40;;;20.40;99.90;;;;;;5088299;28;20474;-79
2023/09/21 00:25:35;;;;;;;3.30;3.00;;;20.40;99.90;;;;;;5088328;28;20851;-83
2023/09/21 00:28:12;;;;;;;4.37;3.37;;;20.40;99.90;;;;;;5087969;28;20408;-80
2023/09/21 00:30:41;;;;;;;5.60;2.80;;;20.40;99.90;;;;;;5088234;28;21099;-83
2023/09/21 00:33:08;;;;;;;4.33;3.93;;;20.40;99.90;;;;;;5087900;28;20408;-80
2023/09/21 00:35:39;;;;;;;4.27;3.87;;;20.40;99.90;;;;;;5087618;28;20432;-83
2023/09/21 00:38:09;;;;;;;6.43;4.03;;;20.40;99.90;;;;;;5089194;28;20749;-80
2023/09/21 00:40:38;;;;;;;8.40;3.73;;;20.40;99.90;;;;;;5087327;28;20467;-83
2023/09/21 00:43:09;;;;;;;4.00;3.60;;;20.30;99.90;;;;;;5089125;28;20814;-80
2023/09/21 00:45:43;;;;;;;3.87;3.03;;;20.30;99.90;;;;;;5087733;28;20467;-80
2023/09/21 00:48:11;;;;;;;3.60;3.30;;;20.20;99.90;;;;;;5088925;28;20389;-80
2023/09/21 00:50:38;;;;;;;3.53;3.23;;;20.10;99.90;;;;;;5088650;28;20865;-79
2023/09/21 00:53:05;;;;;;;6.50;3.40;;;20.10;99.90;;;;;;5087514;28;20500;-80
2023/09/21 00:55:39;;;;;;;4.33;2.97;;;20.00;99.90;;;;;;5088801;28;20440;-83
2023/09/21 00:58:07;;;;;;;4.70;3.60;;;20.00;99.90;;;;;;5087703;28;20512;-82
2023/09/21 01:00:34;;;;;;;4.87;3.77;;;20.00;99.90;;;;;;5087234;28;20497;-83
2023/09/21 01:03:07;;;;;;;4.17;3.77;;;20.00;99.90;;;;;;5087325;28;20669;-79
2023/09/21 01:05:34;;;;;;;4.63;4.00;;;20.00;99.90;;;;;;5087260;28;20488;-83
2023/09/21 01:08:01;;;;;;;3.90;3.40;;;19.90;99.90;;;;;;5088367;28;20746;-79
2023/09/21 01:10:27;;;;;;;5.50;4.77;;;19.90;99.90;;;;;;5087034;28;20441;-79
2023/09/21 01:12:53;;;;;;;3.90;3.50;;;20.00;99.90;;;;;;5087218;28;20421;-80
2023/09/21 01:15:21;;;;;;;5.07;4.40;;;20.00;99.90;;;;;;5088126;28;20463;-83
2023/09/21 01:17:47;;;;;;;4.87;3.97;;;20.00;99.90;;;;;;5087054;28;20815;-83
2023/09/21 01:20:32;;;;;;;6.13;4.23;;;20.00;99.90;;;;;;5088391;28;20549;-82
2023/09/21 01:23:18;;;;;;;4.17;3.87;;;20.00;99.90;;;;;;5087171;28;20549;-80
2023/09/21 01:25:46;;;;;;;4.30;3.90;;;20.00;99.90;;;;;;5088103;28;20979;-80
2023/09/21 01:28:19;;;;;;;4.07;3.40;;;20.10;99.90;;;;;;5087447;28;20412;-80
2023/09/21 01:30:46;;;;;;;3.97;3.57;;;20.00;99.90;;;;;;5086708;28;20448;-83
2023/09/21 01:33:12;;;;;;;4.20;3.87;;;20.00;99.90;;;;;;5086947;28;20491;-82
2023/09/21 01:35:43;;;;;;;5.70;3.97;;;20.00;99.90;;;;;;5088256;28;20436;-81
2023/09/21 01:38:09;;;;;;;4.53;4.00;;;20.00;99.90;;;;;;5086496;28;20494;-83
2023/09/21 01:40:36;;;;;;;5.93;4.50;;;20.00;99.90;;;;;;5087757;28;20432;-83
2023/09/21 01:43:08;;;;;;;4.90;3.67;;;19.90;99.90;;;;;;5086485;28;20701;-79
2023/09/21 01:45:37;;;;;;;7.70;4.07;;;20.00;99.90;;;;;;5086607;28;20484;-83
2023/09/21 01:48:09;;;;;;;5.07;4.60;;;20.00;99.90;;;;;;5086495;28;20456;-83
2023/09/21 01:50:46;;;;;;;4.87;3.90;;;20.00;99.90;;;;;;5086349;28;20439;-83
2023/09/21 01:53:16;;;;;;;3.47;3.10;;;20.00;99.90;;;;;;5087679;28;20467;-83
2023/09/21 01:55:44;;;;;;;5.30;4.80;;;20.10;99.90;;;;;;5086399;28;20459;-83
2023/09/21 01:58:11;;;;;;;5.07;4.57;;;20.10;99.90;;;;;;5087436;28;20864;-80
2023/09/21 02:00:42;;;;;;;4.30;3.90;;;20.10;99.90;;;;;;5087524;28;20448;-80
2023/09/21 02:03:12;;;;;;;4.70;3.70;;;20.10;99.90;;;;;;5087554;28;20416;-79
2023/09/21 02:05:42;;;;;;;4.27;3.60;;;20.10;99.90;;;;;;5085662;28;20539;-83
2023/09/21 02:08:09;;;;;;;5.30;4.70;;;20.20;99.90;;;;;;5087108;28;20428;-83
2023/09/21 02:10:40;;;;;;;5.67;4.20;;;20.10;99.90;;;;;;5085935;28;20649;-83
2023/09/21 02:13:06;;;;;;;4.97;4.47;;;20.10;99.90;;;;;;5087326;28;20954;-79
2023/09/21 02:15:34;;;;;;;4.80;4.37;;;20.10;99.90;;;;;;5085800;28;20471;-82
2023/09/21 02:18:02;;;;;;;4.83;3.90;;;20.10;99.90;;;;;;5085996;28;20559;-79
2023/09/21 02:20:30;;;;;;;6.43;4.23;;;20.10;99.90;;;;;;5085716;28;20474;-79
2023/09/21 02:22:58;;;;;;;3.70;3.40;;;20.10;99.90;;;;;;5087129;28;20416;-83
2023/09/21 02:25:24;;;;;;;5.13;4.47;;;20.10;99.90;;;;;;5087358;28;20822;-80
2023/09/21 02:27:50;;;;;;;4.20;3.80;;;20.10;99.90;;;;;;5085743;28;20444;-83
2023/09/21 02:30:20;;;;;;;5.07;3.70;;;20.10;99.90;;;;;;5084694;28;20648;-80
2023/09/21 02:32:51;;;;;;;4.20;3.80;;;20.10;99.90;;;;;;5087341;28;20178;-83
2023/09/21 02:35:27;;;;;;;6.07;4.63;;;20.10;99.90;;;;;;5085645;28;20443;-83
2023/09/21 02:37:56;;;;;;;5.23;4.10;;;20.20;99.90;;;;;;5086753;28;20476;-83
2023/09/21 02:40:23;;;;;;;4.27;3.87;;;20.20;99.90;;;;;;5086492;28;20495;-82
2023/09/21 02:42:54;;;;;;;4.80;4.40;;;20.30;99.90;;;;;;5085153;28;20414;-79
2023/09/21 02:45:23;;;;;;;5.23;4.00;;;20.30;99.90;;;;;;5085381;28;20571;-82
2023/09/21 02:47:51;;;;;;;4.50;4.03;;;20.30;99.90;;;;;;5085413;28;20424;-80
2023/09/21 02:50:22;;;;;;;6.73;3.67;;;20.40;99.90;;;;;;5086754;28;20518;-83
2023/09/21 02:52:54;;;;;;;5.13;4.30;;;20.40;99.90;;;;;;5086479;28;20409;-83
2023/09/21 02:55:20;;;;;;;4.13;3.73;;;20.50;99.90;;;;;;5086913;28;20456;-79
2023/09/21 02:57:57;;;;;;;4.93;4.30;;;20.50;99.90;;;;;;5085376;28;20404;-80
2023/09/21 03:00:26;;;;;;;6.40;4.20;;;20.50;99.90;;;;;;5086617;28;20444;-83
2023/09/21 03:02:56;;;;;;;5.27;4.60;;;20.60;99.90;;;;;;5085328;28;20417;-83
2023/09/21 03:05:27;;;;;;;4.30;3.90;;;20.70;99.90;;;;;;5086284;28;20471;-83
2023/09/21 03:07:54;;;;;;;4.53;3.90;;;20.70;99.90;;;;;;5085012;28;20431;-80
2023/09/21 03:10:26;;;;;;;5.13;3.80;;;20.80;99.90;;;;;;5084709;28;20867;-83
2023/09/21 03:12:52;;;;;;;6.50;4.70;;;20.80;99.90;;;;;;5084788;28;21008;-79
2023/09/21 03:15:19;;;;;;;4.33;3.93;;;20.90;99.90;;;;;;5084688;28;20449;-83
2023/09/21 03:17:47;;;;;;;5.23;4.63;;;21.00;99.90;;;;;;5084739;28;20549;-80
2023/09/21 03:20:34;;;;;;;6.67;4.30;;;21.00;99.90;;;;;;5086184;28;20551;-83
2023/09/21 03:23:05;;;;;;;5.67;4.33;;;21.10;99.90;;;;;;5086101;28;20389;-82
2023/09/21 03:25:41;;;;;;;4.70;4.20;;;21.10;99.90;;;;;;5084636;28;20560;-83
2023/09/21 03:28:15;;;;;;;5.50;4.43;;;21.20;99.90;;;;;;5084372;28;20474;-80
2023/09/21 03:30:46;;;;;;;5.13;4.20;;;21.20;99.90;;;;;;5083780;28;20582;-80
2023/09/21 03:33:12;;;;;;;5.63;4.23;;;21.10;99.90;;;;;;5085617;28;20405;-80
2023/09/21 03:35:38;;;;;;;4.60;3.83;;;21.10;99.90;;;;;;5085909;28;20445;-82
2023/09/21 03:38:14;;;;;;;4.53;3.57;;;21.10;99.90;;;;;;5084442;28;20442;-79
2023/09/21 03:40:41;;;;;;;4.93;4.37;;;21.00;99.90;;;;;;5084454;28;20208;-80
2023/09/21 03:43:12;;;;;;;5.07;3.73;;;21.00;99.90;;;;;;5085500;28;20435;-80
2023/09/21 03:45:38;;;;;;;5.27;3.90;;;21.00;99.90;;;;;;5084583;28;20916;-80
2023/09/21 03:48:06;;;;;;;4.23;3.83;;;21.00;99.90;;;;;;5084077;28;20405;-83
2023/09/21 03:50:32;;;;;;;3.70;3.40;;;21.00;99.90;;;;;;5085671;28;20437;-80
2023/09/21 03:52:59;;;;;;;5.37;4.30;;;21.10;99.90;;;;;;5083948;28;20427;-83
2023/09/21 03:55:25;;;;;;;5.63;4.10;;;21.10;99.90;;;;;;5086083;28;20881;-80
2023/09/21 03:57:51;;;;;;;3.90;3.30;;;21.10;99.90;;;;;;5085665;28;20405;-83
2023/09/21 04:00:29;;;;;;;6.07;4.10;;;21.10;99.90;;;;;;5085269;28;20437;-79
2023/09/21 04:02:57;;;;;;;5.00;4.50;;;21.10;99.90;;;;;;5084209;28;20806;-83
2023/09/21 04:05:31;;;;;;;4.23;3.80;;;21.20;99.90;;;;;;5083853;28;20481;-83
2023/09/21 04:07:58;;;;;;;7.87;5.00;;;21.20;99.90;;;;;;5084034;28;20504;-80
2023/09/21 04:10:23;;;;;;;6.60;4.57;;;21.20;99.90;;;;;;5083760;28;20507;-80
2023/09/21 04:12:50;;;;;;;5.40;4.03;;;21.10;99.90;;;;;;5085515;28;20515;-83
2023/09/21 04:15:19;;;;;;;4.70;4.27;;;21.10;99.90;;;;;;5082586;28;20575;-82
2023/09/21 04:17:44;;;;;;;5.57;4.70;;;21.10;99.90;;;;;;5083785;28;20424;-81
2023/09/21 04:20:11;;;;;;;5.27;4.37;;;21.10;99.90;;;;;;5083721;28;20440;-80
2023/09/21 04:22:40;;;;;;;5.77;4.30;;;21.00;99.90;;;;;;5085682;28;20230;-82
2023/09/21 04:25:07;;;;;;;5.13;4.20;;;21.00;99.90;;;;;;5078965;28;21062;-79
2023/09/21 04:27:44;;;;;;;4.53;3.47;;;21.00;99.90;;;;;;5081629;28;20420;-79
2023/09/21 04:30:14;;;;;;;4.20;3.80;;;20.90;99.90;;;;;;5084585;28;20490;-80
2023/09/21 04:32:47;;;;;;;6.57;4.60;;;20.90;99.90;;;;;;5081932;28;20795;-79
2023/09/21 04:35:14;;;;;;;5.10;4.00;;;20.90;99.90;;;;;;5075533;28;20441;-79
2023/09/21 04:37:43;;;;;;;4.73;3.80;;;20.90;99.90;;;;;;5073098;28;21076;-83
2023/09/21 04:40:10;;;;;;;3.60;3.30;;;20.90;99.90;;;;;;5074030;28;20827;-80
2023/09/21 04:42:38;;;;;;;5.30;3.70;;;20.90;99.90;;;;;;5074445;28;20430;-83
2023/09/21 04:45:09;;;;;;;5.07;3.80;;;20.80;99.90;;;;;;5073542;28;20468;-80
2023/09/21 04:47:39;;;;;;;3.50;3.00;;;20.80;99.90;;;;;;5072247;28;20874;-82
2023/09/21 04:50:05;;;;;;;3.87;3.57;;;20.80;99.90;;;;;;5075816;28;20501;-83
2023/09/21 04:52:33;;;;;;;4.73;3.90;;;20.70;99.90;;;;;;5085549;28;20800;-80
2023/09/21 04:54:59;;;;;;;3.80;3.50;;;20.70;99.90;;;;;;5084967;28;21067;-82
2023/09/21 04:57:30;;;;;;;4.80;3.77;;;20.70;99.90;;;;;;5084432;28;20467;-83
2023/09/21 04:59:56;;;;;;;3.60;3.30;;;20.60;99.90;;;;;;5085270;28;20469;-79
2023/09/21 05:02:22;;;;;;;3.93;3.50;;;20.60;99.90;;;;;;5084485;28;20420;-80
2023/09/21 05:04:47;;;;;;;3.37;3.07;;;20.60;99.90;;;;;;5084857;28;20452;-79
2023/09/21 05:07:17;;;;;;;5.90;3.33;;;20.60;99.90;;;;;;5086436;28;20204;-82
2023/09/21 05:09:45;;;;;;;6.10;4.10;;;20.60;99.90;;;;;;5084972;28;20224;-81
2023/09/21 05:12:12;;;;;;;3.50;3.20;;;20.60;99.90;;;;;;5085763;28;20513;-83
2023/09/21 05:14:38;;;;;;;3.87;3.50;;;20.60;99.90;;;;;;5087131;28;20451;-82
2023/09/21 05:17:05;;;;;;;5.07;3.30;;;20.60;99.90;;;;;;5083203;28;20429;-80
2023/09/21 05:19:32;;;;;;;3.90;3.23;;;20.60;99.90;;;;;;5084305;28;20461;-83
2023/09/21 05:21:59;;;;;;;3.63;3.30;;;20.60;99.90;;;;;;5087117;28;20420;-80
2023/09/21 05:24:25;;;;;;;4.63;3.23;;;20.60;99.90;;;;;;5084176;28;20436;-83
2023/09/21 05:26:52;;;;;;;5.73;3.90;;;20.60;99.90;;;;;;5082090;28;20469;-83
2023/09/21 05:29:21;;;;;;;4.47;3.30;;;20.60;99.90;;;;;;5080884;28;20807;-83
2023/09/21 05:31:49;;;;;;;4.50;3.17;;;20.60;99.90;;;;;;5083426;28;20474;-80
2023/09/21 05:34:15;;;;;;;4.40;3.10;;;20.60;99.90;;;;;;5084360;28;20926;-79
2023/09/21 05:36:44;;;;;;;4.40;3.40;;;20.60;99.90;;;;;;5085201;28;20614;-82
2023/09/21 05:39:11;;;;;;;4.60;3.40;;;20.60;99.90;;;;;;5080682;28;20429;-80
2023/09/21 05:41:37;;;;;;;8.20;3.70;;;20.60;99.90;;;;;;5081088;28;20729;-83
2023/09/21 05:44:03;;;;;;;3.30;3.00;;;20.60;99.90;;;;;;5081399;28;20457;-80
2023/09/21 05:46:28;;;;;;;4.90;3.07;;;20.60;99.90;;;;;;5075223;28;20626;-79
2023/09/21 05:48:54;;;;;;;3.60;3.30;;;20.60;99.90;;;;;;5068782;28;20288;-83
2023/09/21 05:51:20;;;;;;;3.90;2.53;;;20.60;99.90;;;;;;5077015;28;20429;-82
2023/09/21 05:53:47;;;;;;;2.60;2.40;;;20.60;99.90;;;;;;5077687;28;20545;-83
2023/09/21 05:56:13;;;;;;;3.37;2.93;;;20.60;99.90;;;;;;5077842;28;20804;-82
2023/09/21 05:58:39;;;;;;;2.87;2.63;;;20.60;99.90;;;;;;5075321;28;21087;-80
2023/09/21 06:01:05;;;;;;;3.30;2.87;;;20.60;99.90;;;;;;5078691;28;20517;-83
2023/09/21 06:03:31;;;;;;;3.40;3.10;;;20.60;99.90;;;;;;5082921;28;20428;-83
2023/09/21 06:05:56;;;;;;;3.43;3.10;;;20.60;99.90;;;;;;5077573;28;20790;-83
2023/09/21 06:08:22;;;;;;;5.80;3.13;;;20.50;99.90;;;;;;5086080;28;20459;-80
2023/09/21 06:10:48;;;;;;;3.90;3.53;;;20.50;99.90;;;;;;5080193;28;20219;-80
2023/09/21 06:13:14;;;;;;;4.77;3.30;;;20.50;99.90;;;;;;5082478;28;20184;-80
2023/09/21 06:15:47;;;;;;;4.10;3.10;;;20.50;99.90;;;;;;5079123;28;20561;-80
2023/09/21 06:18:14;;;;;;;5.80;2.93;;;20.50;99.90;;;;;;5082142;28;20238;-82
2023/09/21 06:20:41;;;;;;;3.80;2.93;;;20.50;99.90;;;;;;5077033;28;20989;-79
2023/09/21 06:23:07;;;;;;;3.17;2.87;;;20.50;99.90;;;;;;5074823;28;20428;-82
2023/09/21 06:25:34;;;;;;;3.70;2.50;;;20.50;99.90;;;;;;5076086;28;20746;-83
2023/09/21 06:28:01;;;;;;;3.43;2.73;;;20.50;99.90;;;;;;5077172;28;20446;-83
2023/09/21 06:30:26;;;;;;;3.47;2.70;;;20.50;99.90;;;;;;5078958;28;20635;-83
2023/09/21 06:32:55;;;;;;;3.23;2.90;;;20.60;99.90;;;;;;5079478;28;20611;-80
2023/09/21 06:35:24;;;;;;;3.30;2.73;;;20.60;99.90;;;;;;5078410;28;20293;-80
2023/09/21 06:37:54;;;;;;;2.57;2.17;;;20.60;99.90;;;;;;5077235;28;20432;-79
2023/09/21 06:40:25;;;;;;;2.87;2.50;;;20.60;99.90;;;;;;5078732;28;20461;-83
2023/09/21 06:42:51;;;;;;;3.63;2.43;;;20.70;99.90;;;;;;5077562;28;20714;-79
2023/09/21 06:45:18;;;;;;;2.90;2.60;;;20.70;99.90;;;;;;5077320;28;20545;-83
2023/09/21 06:47:44;;;;;;;2.50;2.30;;;20.70;99.90;;;;;;5077105;28;20211;-81
2023/09/21 06:50:14;;;;;;;5.03;2.80;;;20.80;99.90;;;;;;5075559;28;20996;-85
2023/09/21 06:52:40;;;;;;;3.13;2.80;;;20.90;99.90;;;;;;5081643;28;20397;-82
2023/09/21 06:55:06;;;;;;;2.83;2.57;;;20.90;99.90;;;;;;5078423;28;20487;-81
2023/09/21 06:57:34;;;;;;;4.20;2.57;;;21.00;99.90;;;;;;5077606;28;20512;-80
2023/09/21 07:00:00;;;;;;;2.40;2.20;;;21.10;99.90;;;;;;5078837;28;20460;-82
2023/09/21 07:02:26;;;;;;;3.10;2.80;;;21.10;99.90;;;;;;5078719;28;20421;-80
2023/09/21 07:04:55;;;;;;;3.33;2.50;;;21.20;99.90;;;;;;5078335;28;20517;-83
2023/09/21 07:07:21;;;;;;;3.57;3.00;;;21.20;99.90;;;;;;5075069;28;20198;-83
2023/09/21 07:09:47;;;;;;;3.50;2.63;;;21.30;99.90;;;;;;5079610;28;20749;-84
2023/09/21 07:12:13;;;;;;;3.93;2.70;;;21.40;99.90;;;;;;5079487;28;20502;-83
2023/09/21 07:14:40;;;;;;;2.57;2.37;;;21.50;99.90;;;;;;5073016;28;20460;-82
2023/09/21 07:17:06;;;;;;;3.23;2.73;;;21.70;99.90;;;;;;5074633;28;20596;-84
2023/09/21 07:19:34;;;;;;;3.27;2.87;;;21.70;99.90;;;;;;5074032;28;20582;-84
2023/09/21 07:22:00;;;;;;;3.70;3.07;;;21.80;99.90;;;;;;5071211;28;20183;-82
2023/09/21 07:24:26;;;;;;;4.20;3.10;;;21.80;99.90;;;;;;5078642;28;20667;-85
2023/09/21 07:26:53;;;;;;;3.07;2.57;;;21.90;99.90;;;;;;5074976;28;20461;-81
2023/09/21 07:29:19;;;;;;;3.63;3.23;;;22.00;99.90;;;;;;5071584;28;20198;-84
2023/09/21 07:31:45;;;;;;;2.07;1.87;;;22.10;99.90;;;;;;5081172;28;20417;-84
2023/09/21 07:34:11;;;;;;;3.30;2.23;;;22.20;99.90;;;;;;5080660;28;20816;-82
2023/09/21 07:36:38;;;;;;;5.63;3.50;;;22.30;99.90;;;;;;5076802;28;20176;-81
2023/09/21 07:39:08;;;;;;;3.30;3.00;;;22.40;99.90;;;;;;5081669;28;20464;-83
2023/09/21 07:41:34;;;;;;;3.87;2.77;;;22.40;99.90;;;;;;5076472;28;20436;-83
2023/09/21 07:44:00;;;;;;;3.20;2.80;;;22.50;99.90;;;;;;5082235;28;20971;-83
2023/09/21 07:46:26;;;;;;;3.07;2.77;;;22.60;99.90;;;;;;5079396;28;20637;-81
2023/09/21 07:48:51;;;;;;;3.23;2.93;;;22.60;99.90;;;;;;5077381;28;20192;-80
2023/09/21 07:51:19;;;;;;;3.27;2.50;;;22.60;99.90;;;;;;5075009;28;20240;-81
2023/09/21 07:53:45;;;;;;;2.90;2.17;;;22.70;99.90;;;;;;5065089;28;20626;-81
2023/09/21 07:56:12;;;;;;;3.50;2.97;;;22.70;99.90;;;;;;5079301;28;20449;-80
2023/09/21 07:58:38;;;;;;;2.53;2.33;;;22.70;99.90;;;;;;5078128;28;20429;-80
2023/09/21 08:01:04;;;;;;;2.70;2.50;;;22.70;99.90;;;;;;5075659;28;20454;-80
2023/09/21 08:03:31;;;;;;;3.40;2.60;;;22.70;99.90;;;;;;5076724;28;20729;-80
2023/09/21 08:05:57;;;;;;;2.57;2.37;;;22.70;99.90;;;;;;5065817;28;20272;-80
2023/09/21 08:08:27;;;;;;;3.37;3.07;;;22.70;99.90;;;;;;5064572;28;20525;-79
2023/09/21 08:10:53;;;;;;;3.17;2.90;;;22.80;99.90;;;;;;5073416;28;20805;-81
2023/09/21 08:13:24;;;;;;;4.00;3.03;;;22.80;99.90;;;;;;5075656;28;20843;-81
2023/09/21 08:15:52;;;;;;;3.33;2.87;;;22.80;99.90;;;;;;5075066;28;20460;-80
2023/09/21 08:18:18;;;;;;;3.13;2.67;;;22.80;99.90;;;;;;5076341;28;20430;-81
2023/09/21 08:20:44;;;;;;;5.77;3.30;;;22.80;99.90;;;;;;5076430;28;20670;-81
2023/09/21 08:23:09;;;;;;;3.17;2.80;;;22.90;99.90;;;;;;5070913;28;21045;-81
2023/09/21 08:25:36;;;;;;;2.57;2.37;;;22.90;99.90;;;;;;5073044;28;20320;-81
2023/09/21 08:28:07;;;;;;;4.17;2.60;;;22.90;99.90;;;;;;5078980;28;20357;-80
2023/09/21 08:30:33;;;;;;;3.13;2.43;;;23.00;99.90;;;;;;5073095;28;20442;-81
2023/09/21 08:32:59;;;;;;;3.77;2.60;;;23.00;99.90;;;;;;5096632;28;20759;-82
2023/09/21 08:35:25;;;;;;;3.63;2.80;;;23.00;99.90;;;;;;5095589;28;20453;-82
2023/09/21 08:37:52;;;;;;;3.10;2.80;;;23.10;99.90;;;;;;5084593;28;20423;-82
2023/09/21 08:40:21;;;;;;;3.30;3.00;;;23.10;99.90;;;;;;5080861;28;21044;-80
2023/09/21 08:42:51;;;;;;;4.30;3.50;;;23.10;99.90;;;;;;5081999;28;20428;-80
2023/09/21 08:45:19;;;;;;;3.20;2.90;;;23.20;99.90;;;;;;5076768;28;20859;-81
2023/09/21 08:47:46;;;;;;;3.60;2.67;;;23.20;99.90;;;;;;5080233;28;20940;-80
2023/09/21 08:50:13;;;;;;;2.47;2.27;;;23.20;99.90;;;;;;5076357;28;20468;-82
2023/09/21 08:52:42;;;;;;;3.07;2.80;;;23.30;99.90;;;;;;5070918;28;22008;-81
2023/09/21 08:55:10;;;;;;;4.00;2.67;;;23.30;99.90;;;;;;5070822;28;20835;-80
2023/09/21 08:57:38;;;;;;;3.33;2.23;;;23.30;99.90;;;;;;5095264;28;20435;-80
2023/09/21 09:00:08;;;;;;;3.53;2.90;;;23.40;99.90;;;;;;5072389;28;20726;-81
2023/09/21 09:02:35;;;;;;;4.67;2.97;;;23.40;99.90;;;;;;5080790;28;20422;-82
2023/09/21 09:05:06;;;;;;;4.10;2.80;;;23.50;99.90;;;;;;5081287;28;20475;-82
2023/09/21 09:07:37;;;;;;;3.47;3.17;;;23.60;99.90;;;;;;5080023;28;20521;-81
2023/09/21 09:10:04;;;;;;;3.67;2.97;;;23.70;99.90;;;;;;5081653;28;20677;-80
2023/09/21 09:12:30;;;;;;;4.20;3.20;;;23.80;99.90;;;;;;5083382;28;20436;-80
2023/09/21 09:14:57;;;;;;;2.93;2.60;;;23.80;99.90;;;;;;5080311;28;21021;-80
2023/09/21 09:17:29;;;;;;;4.87;3.20;;;24.00;99.90;;;;;;5081263;28;20183;-80
2023/09/21 09:19:55;;;;;;;4.70;3.00;;;24.10;99.90;;;;;;5071949;28;20592;-81
2023/09/21 09:22:21;;;;;;;3.43;3.13;;;24.10;99.90;;;;;;5072677;28;20432;-81
2023/09/21 09:24:47;;;;;;;4.03;3.07;;;24.30;99.90;;;;;;5078738;28;20550;-80
2023/09/21 09:27:13;;;;;;;3.50;3.20;;;24.30;99.90;;;;;;5073254;28;20851;-82
2023/09/21 09:29:52;;;;;;;3.70;2.90;;;24.40;99.90;;;;;;5074545;28;20494;-80
2023/09/21 09:32:18;;;;;;;3.77;2.80;;;24.50;99.90;;;;;;5080752;28;20246;-80
2023/09/21 09:34:46;;;;;;;4.03;3.23;;;24.60;99.90;;;;;;5079214;28;20452;-82
2023/09/21 09:37:15;;;;;;;4.20;3.07;;;24.70;99.90;;;;;;5076099;28;20775;-81
2023/09/21 09:39:42;;;;;;;4.00;3.13;;;24.70;99.90;;;;;;5073292;28;20861;-81
2023/09/21 09:42:07;;;;;;;3.17;2.87;;;24.80;99.90;;;;;;5078269;28;20948;-81
2023/09/21 09:44:37;;;;;;;6.80;3.43;;;24.90;99.90;;;;;;5078055;28;20538;-81
2023/09/21 09:47:06;;;;;;;3.57;3.00;;;24.90;99.90;;;;;;5076499;28;20446;-82
2023/09/21 09:49:37;;;;;;;3.40;3.10;;;25.00;99.90;;;;;;5072113;28;21047;-80
2023/09/21 09:52:06;;;;;;;3.77;3.20;;;25.00;99.90;;;;;;5080271;28;20805;-80
2023/09/21 09:54:32;;;;;;;3.33;3.03;;;25.20;99.90;;;;;;5071890;28;20571;-80
2023/09/21 09:57:01;;;;;;;5.87;3.27;;;25.20;99.90;;;;;;5070948;28;20409;-80
2023/09/21 09:59:28;;;;;;;4.60;3.60;;;25.30;99.90;;;;;;5075081;28;20453;-81
2023/09/21 10:01:55;;;;;;;4.00;3.13;;;25.50;99.90;;;;;;5077988;28;20440;-81
2023/09/21 10:04:21;;;;;;;5.10;4.27;;;25.60;99.90;;;;;;5078338;28;20517;-81
2023/09/21 10:06:48;;;;;;;4.20;3.73;;;25.80;99.90;;;;;;5079839;28;20469;-81
2023/09/21 10:09:14;;;;;;;4.20;3.40;;;25.90;99.90;;;;;;5077999;28;20459;-81
2023/09/21 10:11:45;;;;;;;3.47;3.17;;;26.00;99.90;;;;;;5077909;28;20470;-80
2023/09/21 10:14:13;;;;;;;3.97;3.57;;;26.10;99.90;;;;;;5064507;28;21206;-81
2023/09/21 10:16:48;;;;;;;3.87;3.40;;;26.10;99.90;;;;;;5051312;28;20490;-80
2023/09/21 10:19:22;;;;;;;5.80;3.60;;;26.20;99.90;;;;;;5075594;28;20504;-80
2023/09/21 10:21:49;;;;;;;3.77;3.47;;;26.30;99.90;;;;;;5069081;28;20433;-80
2023/09/21 10:24:18;;;;;;;4.40;3.67;;;26.40;99.90;;;;;;5062929;28;20498;-81
2023/09/21 10:26:53;;;;;;;4.60;3.47;;;26.40;99.90;;;;;;5067743;28;20465;-80
2023/09/21 10:29:20;;;;;;;4.37;3.97;;;26.60;99.90;;;;;;5072901;28;20549;-80
2023/09/21 10:31:56;;;;;;;3.97;3.27;;;26.80;99.90;;;;;;5073660;28;20446;-80
2023/09/21 10:34:24;;;;;;;5.20;4.00;;;26.90;99.90;;;;;;5077115;28;21308;-81
2023/09/21 10:36:52;;;;;;;4.50;3.77;;;27.10;99.90;;;;;;5073798;28;20431;-80
2023/09/21 10:39:26;;;;;;;4.87;4.20;;;27.10;99.90;;;;;;5077215;28;20433;-80
2023/09/21 10:41:53;;;;;;;3.80;3.00;;;27.20;99.90;;;;;;5097137;27;20602;-80
2023/09/21 10:44:53;;;;;;;4.40;4.00;;;27.20;99.90;;;;;;5067399;28;20452;-81
2023/09/21 10:47:42;;;;;;;4.20;3.80;;;27.30;99.90;;;;;;5070957;28;20735;-81
2023/09/21 10:50:12;;;;;;;4.93;3.60;;;27.40;99.90;;;;;;5066876;28;20464;-80
2023/09/21 10:52:40;;;;;;;8.43;4.90;;;27.40;99.90;;;;;;5072099;28;20422;-81
2023/09/21 10:55:07;;;;;;;4.50;3.70;;;27.50;99.90;;;;;;5074443;28;20512;-82
2023/09/21 10:57:33;;;;;;;4.17;3.70;;;27.50;99.90;;;;;;5071345;28;20422;-80
2023/09/21 10:59:59;;;;;;;4.60;4.10;;;27.60;99.90;;;;;;5066825;28;20926;-80
2023/09/21 11:02:30;;;;;;;6.27;4.50;;;27.70;99.90;;;;;;5054011;28;20432;-81
2023/09/21 11:04:57;;;;;;;4.47;4.10;;;27.80;99.90;;;;;;5070810;28;20487;-80
2023/09/21 11:07:24;;;;;;;4.73;4.23;;;27.90;99.90;;;;;;5068306;28;20646;-80
2023/09/21 11:09:50;;;;;;;3.70;3.37;;;27.90;99.90;;;;;;5067487;28;20465;-81
2023/09/21 11:12:17;;;;;;;6.10;3.43;;;28.00;99.90;;;;;;5071866;28;20525;-82
2023/09/21 11:14:48;;;;;;;4.80;4.00;;;28.10;99.90;;;;;;5068233;28;20211;-82
2023/09/21 11:17:16;;;;;;;4.00;3.60;;;28.20;99.90;;;;;;5065815;28;20413;-82
2023/09/21 11:19:42;;;;;;;4.00;3.60;;;28.30;99.90;;;;;;5064002;28;22200;-82
2023/09/21 11:22:15;;;;;;;4.00;3.10;;;28.40;99.90;;;;;;5076369;28;20428;-81
2023/09/21 11:24:42;;;;;;;3.90;3.37;;;28.50;99.90;;;;;;5069589;28;20475;-82
2023/09/21 11:27:12;;;;;;;5.13;4.20;;;28.50;99.90;;;;;;5072584;28;21026;-82
2023/09/21 11:29:43;;;;;;;4.20;3.47;;;28.60;99.90;;;;;;5068317;28;20456;-81
2023/09/21 11:32:17;;;;;;;4.57;3.23;;;28.80;99.90;;;;;;5078697;28;20533;-81
2023/09/21 11:34:44;;;;;;;4.80;3.70;;;28.80;99.90;;;;;;5076041;28;20453;-81
2023/09/21 11:37:11;;;;;;;4.20;3.90;;;28.90;99.90;;;;;;5079849;28;20438;-81
2023/09/21 11:39:38;;;;;;;4.13;3.73;;;28.90;99.90;;;;;;5082148;28;20459;-80
2023/09/21 11:42:07;;;;;;;3.30;3.00;;;28.90;99.90;;;;;;5076124;28;20427;-81
2023/09/21 11:44:34;;;;;;;4.00;3.53;;;29.00;99.90;;;;;;5079976;28;20463;-81
2023/09/21 11:47:01;;;;;;;3.47;3.17;;;29.00;99.90;;;;;;5051919;28;20762;-81
2023/09/21 11:49:41;;;;;;;4.83;3.60;;;29.10;99.90;;;;;;5045867;28;21009;-80
2023/09/21 11:52:13;;;;;;;4.30;3.90;;;29.10;99.80;;;;;;5076908;28;20423;-80
2023/09/21 11:54:39;;;;;;;5.20;4.00;;;29.20;99.70;;;;;;5074500;28;20489;-81
2023/09/21 11:57:09;;;;;;;6.07;3.60;;;29.20;99.70;;;;;;5075285;28;20418;-80
2023/09/21 11:59:39;;;;;;;6.60;3.13;;;29.20;99.30;;;;;;5079085;28;20213;-81
2023/09/21 12:02:09;;;;;;;4.70;3.37;;;29.20;99.30;;;;;;5082704;28;20398;-81
2023/09/21 12:04:39;;;;;;;4.73;3.30;;;29.20;99.30;;;;;;5068999;28;20455;-81
2023/09/21 12:07:05;;;;;;;3.10;2.90;;;29.30;99.20;;;;;;5075869;28;20493;-80
2023/09/21 12:09:36;;;;;;;4.83;3.70;;;29.40;98.90;;;;;;5075159;28;20454;-79
2023/09/21 12:12:08;;;;;;;3.27;2.87;;;29.40;98.70;;;;;;5072756;28;20422;-81
2023/09/21 12:14:38;;;;;;;6.77;3.70;;;29.40;98.50;;;;;;5078049;28;20469;-82
2023/09/21 12:17:09;;;;;;;6.50;3.53;;;29.40;98.40;;;;;;5076001;28;21016;-81
2023/09/21 12:19:36;;;;;;;5.10;3.60;;;29.40;98.60;;;;;;5078181;28;20531;-82
2023/09/21 12:22:06;;;;;;;5.07;3.57;;;29.40;98.70;;;;;;5076468;28;20424;-81
2023/09/21 12:24:35;;;;;;;3.87;3.50;;;29.40;98.60;;;;;;5075279;28;20467;-81
2023/09/21 12:27:07;;;;;;;5.17;3.37;;;29.50;98.30;;;;;;5074421;28;20468;-80
2023/09/21 12:29:33;;;;;;;5.63;3.40;;;29.50;98.20;;;;;;5075966;28;20837;-80
2023/09/21 12:32:04;;;;;;;4.20;3.20;;;29.50;97.70;;;;;;5069683;28;20782;-80
2023/09/21 12:34:31;;;;;;;5.70;3.77;;;29.50;97.50;;;;;;5075590;28;20956;-80
2023/09/21 12:36:57;;;;;;;6.63;3.70;;;29.50;97.40;;;;;;5079623;28;20447;-81
2023/09/21 12:39:24;;;;;;;7.53;3.90;;;29.50;97.50;;;;;;5083953;28;20442;-82
2023/09/21 12:41:50;;;;;;;5.27;4.20;;;29.50;97.50;;;;;;5077102;28;20426;-80
2023/09/21 12:44:16;;;;;;;6.97;4.27;;;29.50;97.50;;;;;;5072543;28;20588;-80
2023/09/21 12:46:42;;;;;;;7.50;4.10;;;29.50;97.70;;;;;;5077337;28;20558;-80
2023/09/21 12:49:08;;;;;;;6.63;3.63;;;29.50;97.50;;;;;;5097210;28;20504;-81
2023/09/21 12:51:34;;;;;;;5.17;3.50;;;29.50;96.90;;;;;;5077515;28;20194;-81
2023/09/21 12:54:01;;;;;;;6.30;3.00;;;29.40;97.00;;;;;;5072973;28;20454;-80